sensor_id;sensor_type;location;lat;lon;timestamp;P1;durP1;ratioP1;P2;durP2;ratioP2
11490;SDS011;5802;52.832;4.758;2023-02-08T00:01:05;3.00;;;2.30;;
11490;SDS011;5802;52.832;4.758;2023-02-08T00:03:32;2.97;;;2.22;;
11490;SDS011;5802;52.832;4.758;2023-02-08T00:05:59;3.20;;;2.40;;
11490;SDS011;5802;52.832;4.758;2023-02-08T00:08:26;3.30;;;2.60;;
11490;SDS011;5802;52.832;4.758;2023-02-08T00:10:52;3.35;;;2.40;;
11490;SDS011;5802;52.832;4.758;2023-02-08T00:13:20;2.88;;;2.25;;
11490;SDS011;5802;52.832;4.758;2023-02-08T00:15:47;2.78;;;2.50;;
11490;SDS011;5802;52.832;4.758;2023-02-08T00:18:14;2.78;;;2.30;;
11490;SDS011;5802;52.832;4.758;2023-02-08T00:20:41;3.60;;;2.70;;
11490;SDS011;5802;52.832;4.758;2023-02-08T00:23:09;3.30;;;2.40;;
11490;SDS011;5802;52.832;4.758;2023-02-08T00:25:39;3.17;;;2.55;;
11490;SDS011;5802;52.832;4.758;2023-02-08T00:28:08;3.90;;;2.50;;
11490;SDS011;5802;52.832;4.758;2023-02-08T00:30:39;2.80;;;2.40;;
11490;SDS011;5802;52.832;4.758;2023-02-08T00:33:06;3.80;;;2.45;;
11490;SDS011;5802;52.832;4.758;2023-02-08T00:35:33;2.85;;;2.30;;
11490;SDS011;5802;52.832;4.758;2023-02-08T00:38:00;3.40;;;2.40;;
11490;SDS011;5802;52.832;4.758;2023-02-08T00:40:26;3.20;;;2.50;;
11490;SDS011;5802;52.832;4.758;2023-02-08T00:42:53;3.60;;;2.60;;
11490;SDS011;5802;52.832;4.758;2023-02-08T00:45:20;6.38;;;2.70;;
11490;SDS011;5802;52.832;4.758;2023-02-08T00:47:48;3.00;;;2.47;;
11490;SDS011;5802;52.832;4.758;2023-02-08T00:50:15;4.75;;;2.60;;
11490;SDS011;5802;52.832;4.758;2023-02-08T00:52:42;2.90;;;2.30;;
11490;SDS011;5802;52.832;4.758;2023-02-08T00:55:09;3.55;;;2.80;;
11490;SDS011;5802;52.832;4.758;2023-02-08T00:57:36;2.95;;;2.40;;
11490;SDS011;5802;52.832;4.758;2023-02-08T01:00:03;3.67;;;2.88;;
11490;SDS011;5802;52.832;4.758;2023-02-08T01:02:31;4.38;;;2.58;;
11490;SDS011;5802;52.832;4.758;2023-02-08T01:04:59;3.28;;;2.35;;
11490;SDS011;5802;52.832;4.758;2023-02-08T01:07:26;4.88;;;2.55;;
11490;SDS011;5802;52.832;4.758;2023-02-08T01:09:52;3.22;;;2.35;;
11490;SDS011;5802;52.832;4.758;2023-02-08T01:12:19;3.03;;;2.72;;
11490;SDS011;5802;52.832;4.758;2023-02-08T01:14:46;3.38;;;2.65;;
11490;SDS011;5802;52.832;4.758;2023-02-08T01:17:12;3.17;;;2.78;;
11490;SDS011;5802;52.832;4.758;2023-02-08T01:19:39;4.82;;;2.70;;
11490;SDS011;5802;52.832;4.758;2023-02-08T01:22:07;3.03;;;2.67;;
11490;SDS011;5802;52.832;4.758;2023-02-08T01:24:34;2.78;;;2.42;;
11490;SDS011;5802;52.832;4.758;2023-02-08T01:27:00;3.90;;;2.72;;
11490;SDS011;5802;52.832;4.758;2023-02-08T01:29:27;4.68;;;2.90;;
11490;SDS011;5802;52.832;4.758;2023-02-08T01:31:54;4.03;;;2.70;;
11490;SDS011;5802;52.832;4.758;2023-02-08T01:34:20;3.90;;;2.72;;
11490;SDS011;5802;52.832;4.758;2023-02-08T01:36:47;4.57;;;2.55;;
11490;SDS011;5802;52.832;4.758;2023-02-08T01:39:15;4.05;;;2.47;;
11490;SDS011;5802;52.832;4.758;2023-02-08T01:41:43;3.30;;;2.53;;
11490;SDS011;5802;52.832;4.758;2023-02-08T01:47:14;4.25;;;2.80;;
11490;SDS011;5802;52.832;4.758;2023-02-08T01:49:41;3.83;;;2.75;;
11490;SDS011;5802;52.832;4.758;2023-02-08T01:52:08;3.53;;;2.78;;
11490;SDS011;5802;52.832;4.758;2023-02-08T01:54:41;2.95;;;2.33;;
11490;SDS011;5802;52.832;4.758;2023-02-08T01:57:11;3.72;;;2.72;;
11490;SDS011;5802;52.832;4.758;2023-02-08T01:59:39;3.67;;;2.70;;
11490;SDS011;5802;52.832;4.758;2023-02-08T02:02:10;3.33;;;2.70;;
11490;SDS011;5802;52.832;4.758;2023-02-08T02:04:41;4.60;;;2.72;;
11490;SDS011;5802;52.832;4.758;2023-02-08T02:07:08;2.90;;;2.45;;
11490;SDS011;5802;52.832;4.758;2023-02-08T02:09:37;9.45;;;2.90;;
11490;SDS011;5802;52.832;4.758;2023-02-08T02:12:09;5.85;;;2.65;;
11490;SDS011;5802;52.832;4.758;2023-02-08T02:14:36;4.32;;;2.70;;
11490;SDS011;5802;52.832;4.758;2023-02-08T02:17:04;4.53;;;2.83;;
11490;SDS011;5802;52.832;4.758;2023-02-08T02:19:32;2.70;;;2.30;;
11490;SDS011;5802;52.832;4.758;2023-02-08T02:22:13;2.92;;;2.63;;
11490;SDS011;5802;52.832;4.758;2023-02-08T02:28:13;2.83;;;2.40;;
11490;SDS011;5802;52.832;4.758;2023-02-08T02:34:14;3.45;;;2.70;;
11490;SDS011;5802;52.832;4.758;2023-02-08T02:36:50;3.00;;;2.58;;
11490;SDS011;5802;52.832;4.758;2023-02-08T02:39:24;2.50;;;2.30;;
11490;SDS011;5802;52.832;4.758;2023-02-08T02:42:00;4.55;;;2.88;;
11490;SDS011;5802;52.832;4.758;2023-02-08T02:44:53;3.03;;;2.60;;
11490;SDS011;5802;52.832;4.758;2023-02-08T02:47:31;3.00;;;2.58;;
11490;SDS011;5802;52.832;4.758;2023-02-08T02:50:08;3.88;;;2.97;;
11490;SDS011;5802;52.832;4.758;2023-02-08T02:52:40;2.90;;;2.60;;
11490;SDS011;5802;52.832;4.758;2023-02-08T02:55:13;2.88;;;2.58;;
11490;SDS011;5802;52.832;4.758;2023-02-08T02:57:43;3.45;;;2.75;;
11490;SDS011;5802;52.832;4.758;2023-02-08T03:00:17;2.90;;;2.60;;
11490;SDS011;5802;52.832;4.758;2023-02-08T03:02:49;3.15;;;2.40;;
11490;SDS011;5802;52.832;4.758;2023-02-08T03:05:17;3.35;;;2.53;;
11490;SDS011;5802;52.832;4.758;2023-02-08T03:07:49;2.70;;;2.50;;
11490;SDS011;5802;52.832;4.758;2023-02-08T03:10:33;3.00;;;2.67;;
11490;SDS011;5802;52.832;4.758;2023-02-08T03:13:12;3.00;;;2.50;;
11490;SDS011;5802;52.832;4.758;2023-02-08T03:15:52;2.97;;;2.58;;
11490;SDS011;5802;52.832;4.758;2023-02-08T03:18:32;3.00;;;2.70;;
11490;SDS011;5802;52.832;4.758;2023-02-08T03:21:06;4.63;;;2.60;;
11490;SDS011;5802;52.832;4.758;2023-02-08T03:23:37;2.80;;;2.30;;
11490;SDS011;5802;52.832;4.758;2023-02-08T03:26:13;2.70;;;2.35;;
11490;SDS011;5802;52.832;4.758;2023-02-08T03:28:46;3.90;;;2.67;;
11490;SDS011;5802;52.832;4.758;2023-02-08T03:31:25;3.45;;;2.80;;
11490;SDS011;5802;52.832;4.758;2023-02-08T03:33:58;4.13;;;2.90;;
11490;SDS011;5802;52.832;4.758;2023-02-08T03:36:31;3.53;;;2.28;;
11490;SDS011;5802;52.832;4.758;2023-02-08T03:39:02;3.25;;;2.75;;
11490;SDS011;5802;52.832;4.758;2023-02-08T03:41:35;3.70;;;2.42;;
11490;SDS011;5802;52.832;4.758;2023-02-08T03:44:06;3.60;;;2.42;;
11490;SDS011;5802;52.832;4.758;2023-02-08T03:46:36;2.65;;;2.17;;
11490;SDS011;5802;52.832;4.758;2023-02-08T03:49:08;3.08;;;2.30;;
11490;SDS011;5802;52.832;4.758;2023-02-08T03:51:40;2.78;;;2.15;;
11490;SDS011;5802;52.832;4.758;2023-02-08T03:54:10;3.25;;;2.50;;
11490;SDS011;5802;52.832;4.758;2023-02-08T03:56:42;2.90;;;2.60;;
11490;SDS011;5802;52.832;4.758;2023-02-08T03:59:12;2.75;;;2.40;;
11490;SDS011;5802;52.832;4.758;2023-02-08T04:01:46;3.25;;;2.45;;
11490;SDS011;5802;52.832;4.758;2023-02-08T04:04:17;3.10;;;2.80;;
11490;SDS011;5802;52.832;4.758;2023-02-08T04:06:45;2.97;;;2.40;;
11490;SDS011;5802;52.832;4.758;2023-02-08T04:09:12;2.35;;;2.10;;
11490;SDS011;5802;52.832;4.758;2023-02-08T04:11:39;2.92;;;2.60;;
11490;SDS011;5802;52.832;4.758;2023-02-08T04:14:06;3.17;;;2.30;;
11490;SDS011;5802;52.832;4.758;2023-02-08T04:16:32;2.50;;;2.15;;
11490;SDS011;5802;52.832;4.758;2023-02-08T04:18:59;2.72;;;2.22;;
11490;SDS011;5802;52.832;4.758;2023-02-08T04:21:27;2.40;;;2.20;;
11490;SDS011;5802;52.832;4.758;2023-02-08T04:23:54;2.58;;;2.33;;
11490;SDS011;5802;52.832;4.758;2023-02-08T04:26:20;3.00;;;2.53;;
11490;SDS011;5802;52.832;4.758;2023-02-08T04:28:47;3.50;;;2.30;;
11490;SDS011;5802;52.832;4.758;2023-02-08T04:31:14;3.47;;;2.30;;
11490;SDS011;5802;52.832;4.758;2023-02-08T04:33:41;2.67;;;2.38;;
11490;SDS011;5802;52.832;4.758;2023-02-08T04:36:07;2.63;;;2.22;;
11490;SDS011;5802;52.832;4.758;2023-02-08T04:38:35;2.95;;;2.30;;
11490;SDS011;5802;52.832;4.758;2023-02-08T04:41:02;3.33;;;2.40;;
11490;SDS011;5802;52.832;4.758;2023-02-08T04:43:29;3.15;;;2.60;;
11490;SDS011;5802;52.832;4.758;2023-02-08T04:45:56;2.92;;;2.30;;
11490;SDS011;5802;52.832;4.758;2023-02-08T04:48:23;2.50;;;2.30;;
11490;SDS011;5802;52.832;4.758;2023-02-08T04:50:53;3.67;;;2.53;;
11490;SDS011;5802;52.832;4.758;2023-02-08T04:53:20;2.53;;;2.22;;
11490;SDS011;5802;52.832;4.758;2023-02-08T04:55:48;2.05;;;1.85;;
11490;SDS011;5802;52.832;4.758;2023-02-08T04:58:15;3.20;;;2.30;;
11490;SDS011;5802;52.832;4.758;2023-02-08T05:00:42;2.50;;;2.17;;
11490;SDS011;5802;52.832;4.758;2023-02-08T05:03:09;2.55;;;2.08;;
11490;SDS011;5802;52.832;4.758;2023-02-08T05:05:36;2.78;;;2.45;;
11490;SDS011;5802;52.832;4.758;2023-02-08T05:08:03;2.53;;;2.05;;
11490;SDS011;5802;52.832;4.758;2023-02-08T05:10:30;3.53;;;2.40;;
11490;SDS011;5802;52.832;4.758;2023-02-08T05:12:58;2.40;;;2.20;;
11490;SDS011;5802;52.832;4.758;2023-02-08T05:15:25;2.60;;;2.25;;
11490;SDS011;5802;52.832;4.758;2023-02-08T05:17:51;2.55;;;2.05;;
11490;SDS011;5802;52.832;4.758;2023-02-08T05:20:18;5.57;;;2.30;;
11490;SDS011;5802;52.832;4.758;2023-02-08T05:22:45;2.90;;;2.20;;
11490;SDS011;5802;52.832;4.758;2023-02-08T05:25:12;2.70;;;2.22;;
11490;SDS011;5802;52.832;4.758;2023-02-08T05:27:38;2.67;;;2.20;;
11490;SDS011;5802;52.832;4.758;2023-02-08T05:30:07;2.50;;;2.20;;
11490;SDS011;5802;52.832;4.758;2023-02-08T05:32:34;2.30;;;2.10;;
11490;SDS011;5802;52.832;4.758;2023-02-08T05:35:01;3.10;;;2.45;;
11490;SDS011;5802;52.832;4.758;2023-02-08T05:37:28;2.60;;;2.00;;
11490;SDS011;5802;52.832;4.758;2023-02-08T05:39:55;2.75;;;2.38;;
11490;SDS011;5802;52.832;4.758;2023-02-08T05:42:21;2.47;;;2.22;;
11490;SDS011;5802;52.832;4.758;2023-02-08T05:44:48;2.13;;;1.90;;
11490;SDS011;5802;52.832;4.758;2023-02-08T05:47:16;2.80;;;2.13;;
11490;SDS011;5802;52.832;4.758;2023-02-08T05:49:43;2.45;;;2.25;;
11490;SDS011;5802;52.832;4.758;2023-02-08T05:52:09;2.63;;;2.13;;
11490;SDS011;5802;52.832;4.758;2023-02-08T05:54:36;4.68;;;2.60;;
11490;SDS011;5802;52.832;4.758;2023-02-08T05:57:03;2.50;;;1.90;;
11490;SDS011;5802;52.832;4.758;2023-02-08T05:59:29;2.50;;;2.05;;
11490;SDS011;5802;52.832;4.758;2023-02-08T06:01:56;2.85;;;1.95;;
11490;SDS011;5802;52.832;4.758;2023-02-08T06:04:24;2.10;;;1.90;;
11490;SDS011;5802;52.832;4.758;2023-02-08T06:06:51;2.63;;;2.00;;
11490;SDS011;5802;52.832;4.758;2023-02-08T06:09:17;2.30;;;2.00;;
11490;SDS011;5802;52.832;4.758;2023-02-08T06:11:44;2.67;;;2.13;;
11490;SDS011;5802;52.832;4.758;2023-02-08T06:14:11;2.60;;;2.05;;
11490;SDS011;5802;52.832;4.758;2023-02-08T06:16:38;2.30;;;2.10;;
11490;SDS011;5802;52.832;4.758;2023-02-08T06:19:04;3.28;;;1.90;;
11490;SDS011;5802;52.832;4.758;2023-02-08T06:21:32;2.45;;;1.90;;
11490;SDS011;5802;52.832;4.758;2023-02-08T06:23:59;2.55;;;2.00;;
11490;SDS011;5802;52.832;4.758;2023-02-08T06:26:27;2.00;;;1.80;;
11490;SDS011;5802;52.832;4.758;2023-02-08T06:28:54;2.60;;;2.10;;
11490;SDS011;5802;52.832;4.758;2023-02-08T06:31:21;2.40;;;1.98;;
11490;SDS011;5802;52.832;4.758;2023-02-08T06:33:47;2.75;;;1.98;;
11490;SDS011;5802;52.832;4.758;2023-02-08T06:36:14;2.20;;;1.95;;
11490;SDS011;5802;52.832;4.758;2023-02-08T06:38:42;2.47;;;2.00;;
11490;SDS011;5802;52.832;4.758;2023-02-08T06:41:09;2.50;;;2.03;;
11490;SDS011;5802;52.832;4.758;2023-02-08T06:43:36;2.60;;;2.17;;
11490;SDS011;5802;52.832;4.758;2023-02-08T06:46:02;2.40;;;2.03;;
11490;SDS011;5802;52.832;4.758;2023-02-08T06:48:32;3.83;;;2.15;;
11490;SDS011;5802;52.832;4.758;2023-02-08T06:50:59;2.63;;;1.95;;
11490;SDS011;5802;52.832;4.758;2023-02-08T06:53:26;2.15;;;1.90;;
11490;SDS011;5802;52.832;4.758;2023-02-08T06:55:54;2.65;;;2.10;;
11490;SDS011;5802;52.832;4.758;2023-02-08T06:58:21;2.45;;;2.00;;
11490;SDS011;5802;52.832;4.758;2023-02-08T07:00:50;3.25;;;1.90;;
11490;SDS011;5802;52.832;4.758;2023-02-08T07:03:16;2.20;;;1.80;;
11490;SDS011;5802;52.832;4.758;2023-02-08T07:05:43;4.45;;;2.00;;
11490;SDS011;5802;52.832;4.758;2023-02-08T07:08:10;2.67;;;1.98;;
11490;SDS011;5802;52.832;4.758;2023-02-08T07:10:37;2.35;;;2.00;;
11490;SDS011;5802;52.832;4.758;2023-02-08T07:13:08;2.83;;;2.15;;
11490;SDS011;5802;52.832;4.758;2023-02-08T07:15:34;3.00;;;1.80;;
11490;SDS011;5802;52.832;4.758;2023-02-08T07:18:01;4.97;;;2.03;;
11490;SDS011;5802;52.832;4.758;2023-02-08T07:20:28;3.72;;;1.90;;
11490;SDS011;5802;52.832;4.758;2023-02-08T07:22:54;2.67;;;1.80;;
11490;SDS011;5802;52.832;4.758;2023-02-08T07:25:21;2.45;;;2.00;;
11490;SDS011;5802;52.832;4.758;2023-02-08T07:27:48;3.42;;;2.15;;
11490;SDS011;5802;52.832;4.758;2023-02-08T07:30:16;2.10;;;1.90;;
11490;SDS011;5802;52.832;4.758;2023-02-08T07:32:43;3.25;;;2.00;;
11490;SDS011;5802;52.832;4.758;2023-02-08T07:35:09;3.13;;;1.80;;
11490;SDS011;5802;52.832;4.758;2023-02-08T07:37:36;3.63;;;1.80;;
11490;SDS011;5802;52.832;4.758;2023-02-08T07:40:03;2.90;;;2.20;;
11490;SDS011;5802;52.832;4.758;2023-02-08T07:42:30;1.98;;;1.67;;
11490;SDS011;5802;52.832;4.758;2023-02-08T07:44:58;2.47;;;1.85;;
11490;SDS011;5802;52.832;4.758;2023-02-08T07:47:26;3.53;;;2.15;;
11490;SDS011;5802;52.832;4.758;2023-02-08T07:49:54;2.88;;;2.10;;
11490;SDS011;5802;52.832;4.758;2023-02-08T07:52:23;3.15;;;1.80;;
11490;SDS011;5802;52.832;4.758;2023-02-08T07:54:49;3.38;;;2.10;;
11490;SDS011;5802;52.832;4.758;2023-02-08T07:57:16;2.88;;;2.10;;
11490;SDS011;5802;52.832;4.758;2023-02-08T07:59:45;2.30;;;1.85;;
11490;SDS011;5802;52.832;4.758;2023-02-08T08:02:12;2.47;;;2.00;;
11490;SDS011;5802;52.832;4.758;2023-02-08T08:04:41;4.40;;;1.88;;
11490;SDS011;5802;52.832;4.758;2023-02-08T08:07:08;2.38;;;1.88;;
11490;SDS011;5802;52.832;4.758;2023-02-08T08:09:35;3.17;;;1.98;;
11490;SDS011;5802;52.832;4.758;2023-02-08T08:12:01;2.00;;;1.77;;
11490;SDS011;5802;52.832;4.758;2023-02-08T08:14:29;2.33;;;1.92;;
11490;SDS011;5802;52.832;4.758;2023-02-08T08:16:56;2.42;;;1.88;;
11490;SDS011;5802;52.832;4.758;2023-02-08T08:19:23;3.03;;;1.90;;
11490;SDS011;5802;52.832;4.758;2023-02-08T08:21:51;2.55;;;1.98;;
11490;SDS011;5802;52.832;4.758;2023-02-08T08:24:20;4.00;;;1.90;;
11490;SDS011;5802;52.832;4.758;2023-02-08T08:26:47;2.50;;;1.80;;
11490;SDS011;5802;52.832;4.758;2023-02-08T08:29:13;1.73;;;1.60;;
11490;SDS011;5802;52.832;4.758;2023-02-08T08:31:41;2.25;;;1.80;;
11490;SDS011;5802;52.832;4.758;2023-02-08T08:34:08;3.22;;;1.98;;
11490;SDS011;5802;52.832;4.758;2023-02-08T08:36:35;1.73;;;1.63;;
11490;SDS011;5802;52.832;4.758;2023-02-08T08:39:03;2.10;;;1.67;;
11490;SDS011;5802;52.832;4.758;2023-02-08T08:41:30;2.20;;;1.80;;
11490;SDS011;5802;52.832;4.758;2023-02-08T08:43:57;1.63;;;1.52;;
11490;SDS011;5802;52.832;4.758;2023-02-08T08:46:23;2.10;;;1.80;;
11490;SDS011;5802;52.832;4.758;2023-02-08T08:48:51;2.60;;;1.95;;
11490;SDS011;5802;52.832;4.758;2023-02-08T08:51:18;2.50;;;1.83;;
11490;SDS011;5802;52.832;4.758;2023-02-08T08:53:44;2.42;;;1.83;;
11490;SDS011;5802;52.832;4.758;2023-02-08T08:56:12;2.35;;;1.85;;
11490;SDS011;5802;52.832;4.758;2023-02-08T08:58:39;2.42;;;1.92;;
11490;SDS011;5802;52.832;4.758;2023-02-08T09:01:07;2.70;;;1.90;;
11490;SDS011;5802;52.832;4.758;2023-02-08T09:03:34;2.65;;;1.98;;
11490;SDS011;5802;52.832;4.758;2023-02-08T09:06:01;3.42;;;1.85;;
11490;SDS011;5802;52.832;4.758;2023-02-08T09:08:27;4.72;;;2.13;;
11490;SDS011;5802;52.832;4.758;2023-02-08T09:10:54;4.05;;;2.20;;
11490;SDS011;5802;52.832;4.758;2023-02-08T09:13:22;2.83;;;1.90;;
11490;SDS011;5802;52.832;4.758;2023-02-08T09:15:49;3.75;;;1.85;;
11490;SDS011;5802;52.832;4.758;2023-02-08T09:18:15;2.33;;;1.83;;
11490;SDS011;5802;52.832;4.758;2023-02-08T09:20:42;2.80;;;2.20;;
11490;SDS011;5802;52.832;4.758;2023-02-08T09:23:09;3.28;;;1.98;;
11490;SDS011;5802;52.832;4.758;2023-02-08T09:25:36;2.47;;;2.00;;
11490;SDS011;5802;52.832;4.758;2023-02-08T09:28:03;3.72;;;1.70;;
11490;SDS011;5802;52.832;4.758;2023-02-08T09:30:34;1.88;;;1.73;;
11490;SDS011;5802;52.832;4.758;2023-02-08T09:33:01;1.92;;;1.73;;
11490;SDS011;5802;52.832;4.758;2023-02-08T09:35:27;2.15;;;1.83;;
11490;SDS011;5802;52.832;4.758;2023-02-08T09:37:55;4.63;;;2.08;;
11490;SDS011;5802;52.832;4.758;2023-02-08T09:40:27;2.17;;;1.98;;
11490;SDS011;5802;52.832;4.758;2023-02-08T09:43:01;1.98;;;1.70;;
11490;SDS011;5802;52.832;4.758;2023-02-08T09:45:38;2.83;;;2.10;;
11490;SDS011;5802;52.832;4.758;2023-02-08T09:48:13;2.72;;;2.15;;
11490;SDS011;5802;52.832;4.758;2023-02-08T09:50:47;2.10;;;1.80;;
11490;SDS011;5802;52.832;4.758;2023-02-08T09:53:18;3.38;;;1.98;;
11490;SDS011;5802;52.832;4.758;2023-02-08T09:55:50;3.25;;;1.80;;
11490;SDS011;5802;52.832;4.758;2023-02-08T09:58:20;3.10;;;1.90;;
11490;SDS011;5802;52.832;4.758;2023-02-08T10:00:51;2.30;;;2.10;;
11490;SDS011;5802;52.832;4.758;2023-02-08T10:03:21;2.15;;;1.63;;
11490;SDS011;5802;52.832;4.758;2023-02-08T10:05:54;2.03;;;1.83;;
11490;SDS011;5802;52.832;4.758;2023-02-08T10:08:21;1.95;;;1.75;;
11490;SDS011;5802;52.832;4.758;2023-02-08T10:10:50;2.38;;;1.90;;
11490;SDS011;5802;52.832;4.758;2023-02-08T10:13:28;2.38;;;1.90;;
11490;SDS011;5802;52.832;4.758;2023-02-08T10:16:31;2.65;;;2.00;;
11490;SDS011;5802;52.832;4.758;2023-02-08T10:19:05;2.20;;;1.80;;
11490;SDS011;5802;52.832;4.758;2023-02-08T10:21:49;3.17;;;1.88;;
11490;SDS011;5802;52.832;4.758;2023-02-08T10:24:30;2.90;;;2.08;;
11490;SDS011;5802;52.832;4.758;2023-02-08T10:27:10;2.50;;;2.13;;
11490;SDS011;5802;52.832;4.758;2023-02-08T10:29:53;2.10;;;1.90;;
11490;SDS011;5802;52.832;4.758;2023-02-08T10:32:41;2.40;;;1.95;;
11490;SDS011;5802;52.832;4.758;2023-02-08T10:35:25;2.38;;;2.00;;
11490;SDS011;5802;52.832;4.758;2023-02-08T10:37:56;2.45;;;1.85;;
11490;SDS011;5802;52.832;4.758;2023-02-08T10:40:34;3.95;;;1.90;;
11490;SDS011;5802;52.832;4.758;2023-02-08T10:43:15;2.25;;;1.80;;
11490;SDS011;5802;52.832;4.758;2023-02-08T10:45:48;2.63;;;2.10;;
11490;SDS011;5802;52.832;4.758;2023-02-08T10:48:21;4.22;;;2.17;;
11490;SDS011;5802;52.832;4.758;2023-02-08T10:50:59;4.00;;;2.30;;
11490;SDS011;5802;52.832;4.758;2023-02-08T10:53:26;3.33;;;1.85;;
11490;SDS011;5802;52.832;4.758;2023-02-08T10:55:53;5.80;;;2.45;;
11490;SDS011;5802;52.832;4.758;2023-02-08T10:58:21;4.80;;;2.30;;
11490;SDS011;5802;52.832;4.758;2023-02-08T11:00:51;5.40;;;2.22;;
11490;SDS011;5802;52.832;4.758;2023-02-08T11:03:24;8.70;;;2.58;;
11490;SDS011;5802;52.832;4.758;2023-02-08T11:05:52;5.57;;;2.45;;
11490;SDS011;5802;52.832;4.758;2023-02-08T11:08:20;5.25;;;2.47;;
11490;SDS011;5802;52.832;4.758;2023-02-08T11:10:55;5.10;;;2.70;;
11490;SDS011;5802;52.832;4.758;2023-02-08T11:13:25;5.80;;;3.42;;
11490;SDS011;5802;52.832;4.758;2023-02-08T11:15:57;4.38;;;2.97;;
11490;SDS011;5802;52.832;4.758;2023-02-08T11:18:28;3.78;;;2.58;;
11490;SDS011;5802;52.832;4.758;2023-02-08T11:20:59;4.72;;;2.80;;
11490;SDS011;5802;52.832;4.758;2023-02-08T11:23:30;4.30;;;3.10;;
11490;SDS011;5802;52.832;4.758;2023-02-08T11:26:11;7.82;;;2.90;;
11490;SDS011;5802;52.832;4.758;2023-02-08T11:28:41;8.13;;;2.67;;
11490;SDS011;5802;52.832;4.758;2023-02-08T11:31:13;4.43;;;2.38;;
11490;SDS011;5802;52.832;4.758;2023-02-08T11:33:57;7.43;;;2.67;;
11490;SDS011;5802;52.832;4.758;2023-02-08T11:36:25;5.25;;;2.80;;
11490;SDS011;5802;52.832;4.758;2023-02-08T11:38:53;5.07;;;2.92;;
11490;SDS011;5802;52.832;4.758;2023-02-08T11:41:20;3.38;;;2.47;;
11490;SDS011;5802;52.832;4.758;2023-02-08T11:43:55;4.00;;;2.65;;
11490;SDS011;5802;52.832;4.758;2023-02-08T11:46:25;11.85;;;3.25;;
11490;SDS011;5802;52.832;4.758;2023-02-08T11:48:53;4.10;;;2.40;;
11490;SDS011;5802;52.832;4.758;2023-02-08T11:51:27;6.63;;;2.60;;
11490;SDS011;5802;52.832;4.758;2023-02-08T11:53:56;3.55;;;2.70;;
11490;SDS011;5802;52.832;4.758;2023-02-08T11:56:25;3.95;;;2.60;;
11490;SDS011;5802;52.832;4.758;2023-02-08T11:59:00;4.20;;;2.58;;
11490;SDS011;5802;52.832;4.758;2023-02-08T12:01:31;3.35;;;2.35;;
11490;SDS011;5802;52.832;4.758;2023-02-08T12:03:59;4.57;;;2.60;;
11490;SDS011;5802;52.832;4.758;2023-02-08T12:09:36;6.78;;;2.58;;
11490;SDS011;5802;52.832;4.758;2023-02-08T12:12:29;3.55;;;2.25;;
11490;SDS011;5802;52.832;4.758;2023-02-08T12:15:05;5.05;;;2.63;;
11490;SDS011;5802;52.832;4.758;2023-02-08T12:17:44;10.07;;;2.45;;
11490;SDS011;5802;52.832;4.758;2023-02-08T12:20:28;5.45;;;2.45;;
11490;SDS011;5802;52.832;4.758;2023-02-08T12:23:05;4.47;;;2.38;;
11490;SDS011;5802;52.832;4.758;2023-02-08T12:25:47;4.75;;;2.40;;
11490;SDS011;5802;52.832;4.758;2023-02-08T12:28:20;6.57;;;2.45;;
11490;SDS011;5802;52.832;4.758;2023-02-08T12:30:56;9.30;;;2.83;;
11490;SDS011;5802;52.832;4.758;2023-02-08T12:33:35;4.00;;;2.15;;
11490;SDS011;5802;52.832;4.758;2023-02-08T12:36:11;5.10;;;2.53;;
11490;SDS011;5802;52.832;4.758;2023-02-08T12:42:10;4.03;;;2.35;;
11490;SDS011;5802;52.832;4.758;2023-02-08T12:44:51;4.75;;;2.60;;
11490;SDS011;5802;52.832;4.758;2023-02-08T12:47:38;5.10;;;2.47;;
11490;SDS011;5802;52.832;4.758;2023-02-08T12:50:15;2.60;;;2.22;;
11490;SDS011;5802;52.832;4.758;2023-02-08T12:52:45;3.92;;;2.40;;
11490;SDS011;5802;52.832;4.758;2023-02-08T12:55:17;4.13;;;2.45;;
11490;SDS011;5802;52.832;4.758;2023-02-08T12:57:51;2.97;;;2.38;;
11490;SDS011;5802;52.832;4.758;2023-02-08T13:00:20;3.33;;;2.35;;
11490;SDS011;5802;52.832;4.758;2023-02-08T13:02:50;3.13;;;2.40;;
11490;SDS011;5802;52.832;4.758;2023-02-08T13:05:24;2.40;;;2.20;;
11490;SDS011;5802;52.832;4.758;2023-02-08T13:07:57;3.03;;;2.40;;
11490;SDS011;5802;52.832;4.758;2023-02-08T13:10:35;3.90;;;2.30;;
11490;SDS011;5802;52.832;4.758;2023-02-08T13:13:06;3.50;;;2.30;;
11490;SDS011;5802;52.832;4.758;2023-02-08T13:15:42;4.13;;;2.55;;
11490;SDS011;5802;52.832;4.758;2023-02-08T13:18:14;6.07;;;2.33;;
11490;SDS011;5802;52.832;4.758;2023-02-08T13:20:45;3.97;;;2.40;;
11490;SDS011;5802;52.832;4.758;2023-02-08T13:23:19;3.20;;;2.45;;
11490;SDS011;5802;52.832;4.758;2023-02-08T13:25:52;2.63;;;2.15;;
11490;SDS011;5802;52.832;4.758;2023-02-08T13:28:31;2.33;;;2.00;;
11490;SDS011;5802;52.832;4.758;2023-02-08T13:30:58;4.50;;;2.17;;
11490;SDS011;5802;52.832;4.758;2023-02-08T13:33:30;5.38;;;2.47;;
11490;SDS011;5802;52.832;4.758;2023-02-08T13:36:01;3.00;;;2.30;;
11490;SDS011;5802;52.832;4.758;2023-02-08T13:38:29;3.80;;;2.33;;
11490;SDS011;5802;52.832;4.758;2023-02-08T13:41:07;4.05;;;2.33;;
11490;SDS011;5802;52.832;4.758;2023-02-08T13:43:41;3.90;;;2.22;;
11490;SDS011;5802;52.832;4.758;2023-02-08T13:46:11;5.35;;;2.53;;
11490;SDS011;5802;52.832;4.758;2023-02-08T13:48:42;3.80;;;2.50;;
11490;SDS011;5802;52.832;4.758;2023-02-08T13:54:11;3.65;;;2.50;;
11490;SDS011;5802;52.832;4.758;2023-02-08T13:56:40;5.97;;;2.45;;
11490;SDS011;5802;52.832;4.758;2023-02-08T13:59:24;4.82;;;2.70;;
11490;SDS011;5802;52.832;4.758;2023-02-08T14:04:50;2.58;;;2.25;;
11490;SDS011;5802;52.832;4.758;2023-02-08T14:07:23;4.72;;;2.47;;
11490;SDS011;5802;52.832;4.758;2023-02-08T14:12:59;3.55;;;2.30;;
11490;SDS011;5802;52.832;4.758;2023-02-08T14:15:34;5.45;;;2.80;;
11490;SDS011;5802;52.832;4.758;2023-02-08T14:18:02;3.55;;;2.30;;
11490;SDS011;5802;52.832;4.758;2023-02-08T14:20:44;5.00;;;2.35;;
11490;SDS011;5802;52.832;4.758;2023-02-08T14:23:24;6.00;;;2.63;;
11490;SDS011;5802;52.832;4.758;2023-02-08T14:25:54;3.92;;;2.38;;
11490;SDS011;5802;52.832;4.758;2023-02-08T14:28:25;6.68;;;2.20;;
11490;SDS011;5802;52.832;4.758;2023-02-08T14:30:55;3.20;;;2.17;;
11490;SDS011;5802;52.832;4.758;2023-02-08T14:33:25;6.80;;;2.53;;
11490;SDS011;5802;52.832;4.758;2023-02-08T14:35:55;2.80;;;2.10;;
11490;SDS011;5802;52.832;4.758;2023-02-08T14:38:31;3.30;;;2.30;;
11490;SDS011;5802;52.832;4.758;2023-02-08T14:50:38;3.25;;;2.20;;
11490;SDS011;5802;52.832;4.758;2023-02-08T14:53:25;2.63;;;2.00;;
11490;SDS011;5802;52.832;4.758;2023-02-08T14:56:00;3.83;;;2.08;;
11490;SDS011;5802;52.832;4.758;2023-02-08T14:58:32;5.82;;;2.05;;
11490;SDS011;5802;52.832;4.758;2023-02-08T15:01:02;2.75;;;2.08;;
11490;SDS011;5802;52.832;4.758;2023-02-08T15:03:41;4.07;;;2.00;;
11490;SDS011;5802;52.832;4.758;2023-02-08T15:06:27;2.45;;;2.08;;
11490;SDS011;5802;52.832;4.758;2023-02-08T15:09:12;2.45;;;2.00;;
11490;SDS011;5802;52.832;4.758;2023-02-08T15:11:42;5.38;;;2.40;;
11490;SDS011;5802;52.832;4.758;2023-02-08T15:14:15;3.25;;;2.00;;
11490;SDS011;5802;52.832;4.758;2023-02-08T15:16:45;2.63;;;1.98;;
11490;SDS011;5802;52.832;4.758;2023-02-08T15:19:16;5.70;;;1.98;;
11490;SDS011;5802;52.832;4.758;2023-02-08T15:21:48;2.65;;;2.10;;
11490;SDS011;5802;52.832;4.758;2023-02-08T15:24:17;3.25;;;1.90;;
11490;SDS011;5802;52.832;4.758;2023-02-08T15:26:47;2.10;;;1.70;;
11490;SDS011;5802;52.832;4.758;2023-02-08T15:29:18;3.78;;;2.40;;
11490;SDS011;5802;52.832;4.758;2023-02-08T15:31:46;4.13;;;2.10;;
11490;SDS011;5802;52.832;4.758;2023-02-08T15:34:14;2.97;;;2.00;;
11490;SDS011;5802;52.832;4.758;2023-02-08T15:36:44;3.13;;;1.88;;
11490;SDS011;5802;52.832;4.758;2023-02-08T15:39:18;2.00;;;1.80;;
11490;SDS011;5802;52.832;4.758;2023-02-08T15:41:55;2.58;;;1.98;;
11490;SDS011;5802;52.832;4.758;2023-02-08T15:44:23;2.28;;;1.73;;
11490;SDS011;5802;52.832;4.758;2023-02-08T15:46:52;2.13;;;1.92;;
11490;SDS011;5802;52.832;4.758;2023-02-08T15:49:21;2.58;;;1.90;;
11490;SDS011;5802;52.832;4.758;2023-02-08T15:51:52;2.20;;;1.98;;
11490;SDS011;5802;52.832;4.758;2023-02-08T15:54:23;2.67;;;1.90;;